Time;durP1;ratioP1;P1;durP2;ratioP2;P2;SDS_P1;SDS_P2;PMS_P1;PMS_P2;Temp;Humidity;BMP_temperature;BMP_pressure;BME280_temperature;BME280_humidity;BME280_pressure;Samples;Min_cycle;Max_cycle;Signal;HPM_P1;HPM_P2
2022/07/09 00:01:22;;;;;;;49.00;30.98;;;;;;;30.00;74.49;100578.31;4949335;28;65730;-37
2022/07/09 00:03:54;;;;;;;52.53;31.55;;;;;;;29.99;73.90;100565.03;4957945;28;69023;-38
2022/07/09 00:06:26;;;;;;;37.75;27.92;;;;;;;30.09;74.44;100569.91;4957569;28;66259;-38
2022/07/09 00:08:58;;;;;;;44.80;27.88;;;;;;;30.12;73.97;100581.16;4956752;28;70620;-35
2022/07/09 00:11:29;;;;;;;50.30;27.02;;;;;;;30.11;75.38;100579.47;4956823;28;66088;-38
2022/07/09 00:14:01;;;;;;;53.42;26.35;;;;;;;30.05;76.34;100577.66;4961542;28;69938;-40
2022/07/09 00:16:31;;;;;;;52.05;25.25;;;;;;;30.12;75.86;100581.16;4955721;28;66623;-36
2022/07/09 00:19:03;;;;;;;41.45;24.80;;;;;;;30.11;75.54;100576.78;4951130;28;69823;-39
2022/07/09 00:21:34;;;;;;;37.40;22.90;;;;;;;30.11;75.24;100574.06;4958099;28;66064;-37
2022/07/09 00:24:05;;;;;;;41.53;23.88;;;;;;;30.20;75.11;100583.56;4948805;28;71920;-37
2022/07/09 00:26:36;;;;;;;45.45;26.40;;;;;;;30.22;76.19;100592.28;4960387;28;67247;-37
2022/07/09 00:29:07;;;;;;;44.90;25.55;;;;;;;30.23;76.57;100596.69;5027601;28;70923;-37
2022/07/09 00:31:38;;;;;;;46.30;26.27;;;;;;;30.20;77.78;100597.09;4958509;28;65236;-39
2022/07/09 00:34:09;;;;;;;50.80;27.10;;;;;;;29.99;77.56;100565.03;4954103;28;69889;-38
2022/07/09 00:36:40;;;;;;;47.88;26.13;;;;;;;30.16;78.04;100593.16;4957342;28;65389;-38
2022/07/09 00:39:11;;;;;;;49.33;24.23;;;;;;;30.21;77.10;100606.03;4955989;28;70496;-39
2022/07/09 00:41:42;;;;;;;35.33;23.35;;;;;;;30.25;77.32;100599.16;4951755;28;66377;-38
2022/07/09 00:44:13;;;;;;;41.55;22.10;;;;;;;30.28;76.67;100602.25;4953571;28;70822;-36
2022/07/09 00:46:44;;;;;;;34.90;21.13;;;;;;;30.30;77.00;100593.06;4956169;28;67376;-37
2022/07/09 00:49:15;;;;;;;34.03;18.85;;;;;;;30.39;74.73;100586.31;4954021;28;71084;-35
2022/07/09 00:51:47;;;;;;;20.30;15.83;;;;;;;30.45;74.14;100596.25;4957408;28;65906;-35
2022/07/09 00:54:18;;;;;;;29.38;15.57;;;;;;;30.49;73.39;100586.63;4958959;28;69206;-36
2022/07/09 00:56:50;;;;;;;29.02;15.90;;;;;;;30.55;73.29;100585.72;4997805;28;66234;-36
2022/07/09 00:59:22;;;;;;;23.58;15.15;;;;;;;30.60;72.96;100583.19;4956786;28;71337;-36
2022/07/09 01:01:54;;;;;;;25.10;15.43;;;;;;;30.63;72.86;100576.47;4958542;28;66258;-36
2022/07/09 01:04:25;;;;;;;23.42;13.93;;;;;;;30.68;72.57;100584.75;4956842;28;69902;-35
2022/07/09 01:06:57;;;;;;;17.40;13.95;;;;;;;30.44;72.75;100554.00;4955141;28;66017;-34
2022/07/09 01:09:29;;;;;;;25.13;14.07;;;;;;;30.76;72.16;100587.16;4953339;28;70818;-35
2022/07/09 01:12:01;;;;;;;24.33;13.85;;;;;;;30.74;72.27;100578.44;5020193;28;66295;-35
2022/07/09 01:14:32;;;;;;;20.27;12.82;;;;;;;30.82;71.60;100588.16;4955190;28;70607;-34
2022/07/09 01:17:05;;;;;;;17.65;13.55;;;;;;;30.65;71.28;100556.25;4958359;28;66529;-36
2022/07/09 01:19:37;;;;;;;22.75;13.57;;;;;;;30.80;71.39;100584.84;5019519;28;68853;-35
2022/07/09 01:22:08;;;;;;;18.67;12.97;;;;;;;30.89;71.47;100592.44;4957031;28;66160;-36
2022/07/09 01:24:39;;;;;;;15.77;12.70;;;;;;;30.89;71.29;100592.44;5022018;28;70567;-34
2022/07/09 01:27:10;;;;;;;19.03;12.93;;;;;;;30.82;70.85;100580.03;4957727;28;66493;-35
2022/07/09 01:29:43;;;;;;;20.85;14.07;;;;;;;30.94;71.10;100594.47;4956147;28;69127;-34
2022/07/09 01:32:14;;;;;;;14.13;12.57;;;;;;;30.97;70.83;100591.28;5033885;28;66292;-37
2022/07/09 01:34:45;;;;;;;18.23;12.33;;;;;;;30.98;70.99;100586.69;4952657;28;70289;-36
2022/07/09 01:37:16;;;;;;;16.35;12.02;;;;;;;30.88;70.40;100579.13;4956865;28;67770;-37
2022/07/09 01:39:50;;;;;;;17.40;12.82;;;;;;;31.02;70.21;100594.16;4955365;28;71581;-36
2022/07/09 01:42:21;;;;;;;16.10;12.10;;;;;;;31.04;70.12;100589.34;4952427;28;66605;-35
2022/07/09 01:44:52;;;;;;;14.20;11.57;;;;;;;31.06;69.89;100581.78;4949680;28;69224;-37
2022/07/09 01:47:23;;;;;;;20.45;12.35;;;;;;;31.07;69.88;100579.94;4950352;28;64956;-36
2022/07/09 01:49:54;;;;;;;17.52;11.18;;;;;;;31.09;69.81;100570.53;4953365;28;70169;-36
2022/07/09 01:52:25;;;;;;;12.80;10.77;;;;;;;31.09;69.72;100573.25;5021728;28;67633;-34
2022/07/09 01:54:57;;;;;;;15.20;11.20;;;;;;;31.12;69.23;100570.06;4955141;28;69761;-35
2022/07/09 01:57:28;;;;;;;16.17;11.60;;;;;;;31.14;69.28;100565.22;4957910;28;65168;-35
2022/07/09 01:59:59;;;;;;;15.23;11.00;;;;;;;31.15;69.52;100557.94;4951694;28;71127;-35
2022/07/09 02:02:40;;;;;;;12.55;10.07;;;;;;;31.21;68.83;100556.19;5022939;28;66018;-34
2022/07/09 02:05:11;;;;;;;12.32;11.02;;;;;;;31.13;68.80;100539.19;4955481;28;70059;-34
2022/07/09 02:07:42;;;;;;;14.48;11.20;;;;;;;31.16;69.02;100527.91;4954761;28;65741;-36
2022/07/09 02:10:14;;;;;;;12.35;10.77;;;;;;;31.29;68.90;100547.75;4953837;28;69355;-36
2022/07/09 02:12:46;;;;;;;13.55;9.90;;;;;;;31.26;68.43;100532.78;4955828;28;65818;-36
2022/07/09 02:15:17;;;;;;;15.40;10.13;;;;;;;31.03;68.59;100495.56;4955282;28;70568;-35
2022/07/09 02:17:48;;;;;;;12.38;9.82;;;;;;;31.24;68.24;100509.66;4955721;28;65804;-35
2022/07/09 02:20:19;;;;;;;10.57;9.57;;;;;;;31.33;68.10;100527.25;4954507;28;69495;-35
2022/07/09 02:22:50;;;;;;;14.57;9.68;;;;;;;31.28;68.52;100513.56;4948051;28;65543;-34
2022/07/09 02:25:21;;;;;;;11.70;8.77;;;;;;;31.37;68.17;100517.59;4950300;28;69842;-35
2022/07/09 02:27:54;;;;;;;13.52;9.13;;;;;;;31.29;67.88;100510.63;4953769;28;66870;-34
2022/07/09 02:30:25;;;;;;;13.88;10.20;;;;;;;31.40;68.34;100517.16;4958169;28;69427;-35
2022/07/09 02:32:56;;;;;;;11.10;8.60;;;;;;;31.40;67.95;100500.91;4955312;28;66824;-34
2022/07/09 02:35:28;;;;;;;14.30;9.07;;;;;;;31.44;68.15;100518.34;4953096;28;70008;-36
2022/07/09 02:38:00;;;;;;;10.68;8.88;;;;;;;31.44;67.93;100502.06;4950435;28;66165;-35
2022/07/09 02:40:31;;;;;;;9.60;8.38;;;;;;;31.43;67.83;100492.31;4951772;28;70234;-36
2022/07/09 02:43:02;;;;;;;11.07;9.02;;;;;;;31.53;67.93;100503.38;4950910;28;67330;-36
2022/07/09 02:45:33;;;;;;;9.75;8.68;;;;;;;31.54;67.94;100496.09;4950065;28;69519;-37
2022/07/09 02:48:04;;;;;;;12.48;8.85;;;;;;;31.59;67.48;100494.31;4956268;28;65775;-35
2022/07/09 02:50:35;;;;;;;9.70;8.80;;;;;;;31.61;67.31;100486.75;4952797;28;70231;-37
2022/07/09 02:53:06;;;;;;;12.20;8.38;;;;;;;31.55;67.42;100471.44;4956627;28;65266;-36
2022/07/09 02:55:37;;;;;;;10.50;8.43;;;;;;;31.68;67.07;100480.41;4956134;28;69595;-35
2022/07/09 02:58:08;;;;;;;10.10;7.67;;;;;;;31.67;67.01;100478.75;4953484;28;65682;-36
2022/07/09 03:00:40;;;;;;;9.05;7.38;;;;;;;31.64;66.69;100465.66;4950213;28;70304;-35
2022/07/09 03:03:11;;;;;;;11.55;8.30;;;;;;;31.74;66.71;100474.06;4954748;28;66180;-40
2022/07/09 03:05:42;;;;;;;10.98;7.93;;;;;;;31.52;66.84;100433.97;4951561;28;70013;-36
2022/07/09 03:08:13;;;;;;;8.48;7.40;;;;;;;31.80;66.35;100473.91;4954470;28;65465;-37
2022/07/09 03:10:45;;;;;;;8.27;7.50;;;;;;;31.79;66.46;100453.28;4954658;28;69883;-38
2022/07/09 03:13:17;;;;;;;10.40;8.32;;;;;;;31.84;66.01;100463.41;4954757;28;66518;-36
2022/07/09 03:15:49;;;;;;;9.35;7.47;;;;;;;31.83;66.49;100454.47;4956803;28;69048;-36
2022/07/09 03:18:20;;;;;;;7.47;6.80;;;;;;;31.90;65.96;100462.50;4954904;28;66610;-44
2022/07/09 03:20:51;;;;;;;9.90;7.10;;;;;;;31.91;66.24;100453.31;4957149;28;69862;-36
2022/07/09 03:23:22;;;;;;;9.33;6.80;;;;;;;31.88;65.93;100434.78;5019960;28;65983;-36
2022/07/09 03:25:53;;;;;;;7.57;6.87;;;;;;;31.95;66.00;100438.19;5012223;28;69790;-34
2022/07/09 03:28:24;;;;;;;9.13;7.22;;;;;;;31.97;65.48;100446.94;5019456;28;66466;-35
2022/07/09 03:30:56;;;;;;;10.20;6.28;;;;;;;31.98;65.63;100454.03;5018309;28;70711;-34
2022/07/09 03:33:27;;;;;;;7.93;6.40;;;;;;;31.99;65.66;100455.66;4951537;28;66341;-35
2022/07/09 03:35:58;;;;;;;;;;;;;;;31.67;66.08;100451.63;4997014;28;70537;-34
2022/07/09 03:38:29;;;;;;;7.35;5.78;;;;;;;32.01;65.51;100453.53;4955416;28;66557;-37
2022/07/09 03:41:01;;;;;;;7.00;6.32;;;;;;;32.03;65.70;100454.09;4953837;28;70150;-35
2022/07/09 03:43:34;;;;;;;7.50;6.30;;;;;;;32.08;65.18;100452.59;5028832;28;66527;-35
2022/07/09 03:46:06;;;;;;;6.43;5.88;;;;;;;32.01;65.38;100442.69;4949241;28;70208;-35
2022/07/09 03:48:37;;;;;;;6.32;5.82;;;;;;;32.10;64.99;100447.75;4955458;28;65611;-35
2022/07/09 03:51:07;;;;;;;7.38;5.68;;;;;;;32.09;65.05;100443.38;4951533;28;69269;-35
2022/07/09 03:53:38;;;;;;;7.38;6.07;;;;;;;32.15;64.71;100453.25;4950563;28;66754;-35
2022/07/09 03:56:09;;;;;;;7.05;5.90;;;;;;;32.07;64.91;100429.22;5005404;28;70661;-35
2022/07/09 03:58:41;;;;;;;9.05;6.18;;;;;;;32.12;64.73;100427.44;4953492;28;66314;-35
2022/07/09 04:01:12;;;;;;;5.50;5.00;;;;;;;32.17;65.02;100430.25;4953585;28;70002;-34
2022/07/09 04:03:42;;;;;;;5.57;5.05;;;;;;;31.86;64.66;100385.34;4955551;28;65713;-36
2022/07/09 04:06:14;;;;;;;5.85;5.25;;;;;;;32.18;64.65;100421.06;5010819;28;71297;-35
2022/07/09 04:08:45;;;;;;;5.95;5.45;;;;;;;32.18;64.28;100422.94;4948609;28;66013;-35
2022/07/09 04:11:16;;;;;;;7.07;5.05;;;;;;;32.24;64.46;100416.56;4996951;28;71224;-35
2022/07/09 04:13:47;;;;;;;7.72;5.07;;;;;;;32.25;64.49;100423.63;4947786;28;65742;-38
2022/07/09 04:16:18;;;;;;;5.90;5.43;;;;;;;32.26;64.49;100417.97;5021358;28;69415;-36
2022/07/09 04:18:50;;;;;;;6.30;5.20;;;;;;;32.29;64.33;100416.66;4954351;28;65130;-38
2022/07/09 04:21:24;;;;;;;8.43;4.85;;;;;;;32.17;64.37;100396.88;4953488;28;69792;-35
2022/07/09 04:23:55;;;;;;;7.00;5.25;;;;;;;32.33;64.06;100414.28;4948123;28;65856;-35
2022/07/09 04:26:25;;;;;;;8.52;4.97;;;;;;;32.32;64.14;100405.34;4955859;28;70159;-35
2022/07/09 04:28:57;;;;;;;8.97;5.17;;;;;;;32.35;64.00;100410.28;4951437;28;66413;-35
2022/07/09 04:31:27;;;;;;;5.15;4.75;;;;;;;32.35;63.87;100413.00;4951911;28;69943;-36
2022/07/09 04:33:59;;;;;;;12.88;5.15;;;;;;;32.39;63.99;100403.28;5013750;28;66700;-34
2022/07/09 04:36:31;;;;;;;11.48;4.72;;;;;;;32.39;64.09;100403.28;4948558;28;70652;-36
2022/07/09 04:39:02;;;;;;;7.63;4.53;;;;;;;32.41;63.83;100409.28;4953808;28;65842;-37
2022/07/09 04:41:34;;;;;;;12.45;4.60;;;;;;;32.42;63.79;100416.38;4956008;28;69940;-35
2022/07/09 04:44:05;;;;;;;6.80;4.32;;;;;;;32.43;63.70;100411.75;4954576;28;66479;-36
2022/07/09 04:46:36;;;;;;;4.72;4.25;;;;;;;32.43;63.75;100407.16;4951569;28;70973;-36
2022/07/09 04:49:07;;;;;;;4.90;4.47;;;;;;;32.38;63.64;100388.06;5017586;28;66062;-35
2022/07/09 04:51:38;;;;;;;8.93;4.60;;;;;;;32.43;63.72;100393.59;4954425;28;70440;-36
2022/07/09 04:54:08;;;;;;;5.80;4.63;;;;;;;32.39;63.48;100389.69;4952697;28;65919;-34
2022/07/09 04:56:39;;;;;;;5.03;4.03;;;;;;;32.45;63.67;100399.59;4952715;28;69381;-39
2022/07/09 04:59:10;;;;;;;6.53;4.22;;;;;;;32.47;63.33;100392.06;4950089;28;66118;-34
2022/07/09 05:01:41;;;;;;;7.65;4.70;;;;;;;32.51;63.47;100392.41;4956673;28;69333;-34
2022/07/09 05:04:12;;;;;;;5.57;3.95;;;;;;;32.42;63.10;100370.22;4954845;28;66332;-35
2022/07/09 05:06:43;;;;;;;4.25;3.83;;;;;;;32.49;63.34;100387.22;4957846;28;69939;-37
2022/07/09 05:09:14;;;;;;;6.07;3.70;;;;;;;32.52;63.22;100393.25;4957506;28;65377;-36
2022/07/09 05:11:46;;;;;;;4.47;3.67;;;;;;;32.53;63.29;100378.59;4953539;28;70208;-35
2022/07/09 05:14:16;;;;;;;4.65;3.47;;;;;;;32.53;63.12;100389.44;4948939;28;65734;-34
2022/07/09 05:16:47;;;;;;;7.13;3.47;;;;;;;32.51;62.92;100370.69;4956373;28;69728;-36
2022/07/09 05:19:18;;;;;;;3.85;3.40;;;;;;;32.58;62.93;100384.94;4955618;28;66981;-35
2022/07/09 05:21:50;;;;;;;4.22;3.38;;;;;;;32.59;62.88;100383.03;5021544;28;70047;-36
2022/07/09 05:24:21;;;;;;;4.72;3.28;;;;;;;32.54;62.85;100361.22;5023261;28;65027;-35
2022/07/09 05:26:52;;;;;;;5.87;3.83;;;;;;;32.59;62.67;100372.19;4954653;28;71738;-35
2022/07/09 05:29:24;;;;;;;3.40;3.10;;;;;;;32.62;62.87;100371.69;4956138;28;66999;-36
2022/07/09 05:31:57;;;;;;;3.20;3.00;;;;;;;32.60;62.38;100352.94;4953818;28;70356;-34
2022/07/09 05:34:29;;;;;;;4.50;2.95;;;;;;;32.67;62.56;100363.63;4954659;28;66460;-35
2022/07/09 05:37:00;;;;;;;4.13;3.15;;;;;;;32.66;62.85;100364.72;4956718;28;70737;-36
2022/07/09 05:39:31;;;;;;;5.63;2.67;;;;;;;32.64;62.25;100354.09;4953907;28;65997;-35
2022/07/09 05:42:02;;;;;;;6.00;3.25;;;;;;;32.69;62.44;100361.50;4955994;28;70587;-34
2022/07/09 05:44:33;;;;;;;4.55;3.08;;;;;;;32.72;62.19;100361.00;4955351;28;66508;-36
2022/07/09 05:47:04;;;;;;;4.13;3.00;;;;;;;32.73;62.14;100357.22;4954519;28;69529;-37
2022/07/09 05:49:35;;;;;;;3.70;2.97;;;;;;;32.73;62.38;100357.22;4953931;28;66069;-36
2022/07/09 05:52:06;;;;;;;3.42;3.08;;;;;;;32.74;62.05;100345.31;4954958;28;69198;-35
2022/07/09 05:54:37;;;;;;;3.10;2.57;;;;;;;32.75;61.98;100352.38;4956379;28;67727;-35
2022/07/09 05:57:08;;;;;;;7.50;2.75;;;;;;;32.78;62.07;100351.06;4955854;28;69935;-35
2022/07/09 05:59:39;;;;;;;4.23;2.60;;;;;;;32.78;62.17;100345.63;5022789;28;67246;-34
2022/07/09 06:02:10;;;;;;;3.35;2.97;;;;;;;32.81;61.88;100342.41;4953564;28;71714;-35
2022/07/09 06:04:41;;;;;;;4.23;2.50;;;;;;;32.81;62.14;100342.41;4957271;28;66703;-37
2022/07/09 06:07:12;;;;;;;3.50;2.43;;;;;;;32.79;62.04;100328.25;4955015;28;70028;-34
2022/07/09 06:09:43;;;;;;;4.63;3.00;;;;;;;32.71;62.06;100305.88;4949096;28;66607;-35
2022/07/09 06:12:14;;;;;;;3.50;2.38;;;;;;;32.83;62.05;100319.38;5017532;28;70499;-35
2022/07/09 06:14:45;;;;;;;3.35;2.30;;;;;;;32.83;61.85;100327.53;4955578;28;65322;-36
2022/07/09 06:17:16;;;;;;;5.38;2.42;;;;;;;32.86;61.96;100321.59;4954649;28;68659;-35
2022/07/09 06:19:47;;;;;;;4.93;2.40;;;;;;;32.87;61.59;100325.94;4958126;28;65720;-38
2022/07/09 06:22:18;;;;;;;3.10;2.60;;;;;;;32.86;61.89;100332.47;4958671;28;69808;-35
2022/07/09 06:24:49;;;;;;;4.60;2.38;;;;;;;32.90;61.64;100322.75;4955765;28;66463;-36
2022/07/09 06:27:20;;;;;;;3.25;2.20;;;;;;;32.88;61.60;100314.03;5012051;28;69583;-37
2022/07/09 06:29:51;;;;;;;3.88;2.22;;;;;;;32.58;61.85;100261.94;4952294;28;66464;-34
2022/07/09 06:32:22;;;;;;;2.37;1.93;;;;;;;32.63;61.67;100273.69;4951363;28;70370;-36
2022/07/09 06:34:53;;;;;;;1.95;1.80;;;;;;;32.91;61.70;100316.25;5017186;28;66877;-36
2022/07/09 06:37:25;;;;;;;3.03;2.57;;;;;;;32.92;61.56;100315.16;4949241;28;69795;-35
2022/07/09 06:39:57;;;;;;;2.80;1.83;;;;;;;32.93;61.69;100308.69;4953964;28;67558;-35
2022/07/09 06:42:28;;;;;;;7.10;2.72;;;;;;;32.97;61.42;100302.75;4956873;28;69727;-36
2022/07/09 06:45:23;;;;;;;2.33;2.05;;;;;;;32.95;61.54;100297.53;4948743;28;64785;-35
2022/07/09 06:47:54;;;;;;;3.55;2.55;;;;;;;32.98;61.59;100301.66;5005444;28;70211;-34
2022/07/09 06:50:25;;;;;;;6.07;2.38;;;;;;;32.98;61.53;100298.94;5014337;28;66383;-36
2022/07/09 06:52:57;;;;;;;5.82;2.50;;;;;;;32.91;61.50;100278.22;4953117;28;69971;-35
2022/07/09 06:55:28;;;;;;;4.10;2.28;;;;;;;33.00;61.39;100291.41;4955255;28;66184;-34
2022/07/09 06:57:59;;;;;;;4.90;2.50;;;;;;;32.99;61.41;100285.13;5014708;28;69881;-35
2022/07/09 07:00:30;;;;;;;5.43;2.55;;;;;;;32.89;61.47;100276.81;4958500;28;66146;-36
2022/07/09 07:03:02;;;;;;;4.20;2.38;;;;;;;32.79;61.83;100266.63;4953866;28;69545;-35
2022/07/09 07:05:33;;;;;;;5.97;2.60;;;;;;;32.67;62.22;100255.00;5031306;28;65882;-36
2022/07/09 07:08:04;;;;;;;4.00;2.53;;;;;;;32.69;62.55;100258.31;4953902;28;69601;-36
2022/07/09 07:10:35;;;;;;;2.87;2.57;;;;;;;32.38;62.77;100225.22;5010516;28;66632;-36
2022/07/09 07:13:11;;;;;;;5.10;2.42;;;;;;;32.52;63.10;100252.88;4970982;28;69652;-37
2022/07/09 07:15:44;;;;;;;6.20;2.67;;;;;;;32.56;63.74;100256.72;5023241;28;65073;-38
2022/07/09 07:18:16;;;;;;;5.75;2.92;;;;;;;32.53;64.35;100240.13;4957393;28;70137;-36
2022/07/09 07:20:47;;;;;;;9.35;2.72;;;;;;;32.58;64.68;100245.63;4954853;28;65485;-38
2022/07/09 07:23:18;;;;;;;6.50;2.70;;;;;;;32.58;64.71;100232.06;4952131;28;70554;-36
2022/07/09 07:25:49;;;;;;;2.95;2.05;;;;;;;32.74;63.99;100233.94;4954865;28;65723;-36
2022/07/09 07:28:20;;;;;;;3.72;2.20;;;;;;;32.79;64.01;100234.03;4957140;28;71328;-37
2022/07/09 07:30:51;;;;;;;3.53;2.22;;;;;;;32.78;64.29;100216.06;4957111;28;65436;-37
2022/07/09 07:33:22;;;;;;;7.55;2.10;;;;;;;32.90;64.29;100226.84;4959040;28;70117;-35
2022/07/09 07:35:53;;;;;;;3.58;2.35;;;;;;;32.93;64.41;100221.75;4956404;28;66360;-36
2022/07/09 07:38:27;;;;;;;7.05;2.22;;;;;;;32.89;64.87;100212.44;4954363;28;68802;-36
2022/07/09 07:40:58;;;;;;;4.28;2.40;;;;;;;32.89;64.58;100219.75;4959281;28;65494;-35
2022/07/09 07:43:29;;;;;;;3.58;2.95;;;;;;;32.81;64.96;100218.28;4957911;28;70241;-35
2022/07/09 07:46:00;;;;;;;5.53;2.38;;;;;;;32.75;65.47;100213.84;5016886;28;66277;-36
2022/07/09 07:48:40;;;;;;;6.75;2.30;;;;;;;32.74;66.19;100212.22;4961281;28;69853;-35
2022/07/09 07:51:12;;;;;;;2.88;2.10;;;;;;;32.68;66.19;100197.75;4953610;28;64764;-35
2022/07/09 07:53:42;;;;;;;8.27;2.28;;;;;;;32.72;66.51;100217.06;5021826;28;70289;-35
2022/07/09 07:56:13;;;;;;;3.85;2.75;;;;;;;32.70;66.63;100213.78;4954286;28;66508;-36
2022/07/09 07:58:44;;;;;;;5.07;2.50;;;;;;;32.73;66.59;100210.56;4953371;28;69351;-35
2022/07/09 08:01:15;;;;;;;2.40;2.20;;;;;;;32.63;66.75;100194.94;4958416;28;66300;-36
2022/07/09 08:03:46;;;;;;;2.60;2.38;;;;;;;32.69;67.20;100199.38;5023477;28;69958;-35
2022/07/09 08:06:17;;;;;;;6.03;2.67;;;;;;;32.71;67.42;100201.88;4958476;28;66960;-35
2022/07/09 08:08:48;;;;;;;11.43;2.43;;;;;;;32.71;67.47;100204.56;4957920;28;70505;-37
2022/07/09 08:11:19;;;;;;;2.92;2.63;;;;;;;32.66;67.54;100199.06;4957794;28;65838;-37
2022/07/09 08:13:51;;;;;;;8.23;2.97;;;;;;;32.71;67.79;100196.44;4955394;28;71336;-35
2022/07/09 08:16:22;;;;;;;30.60;5.10;;;;;;;32.70;67.99;100195.59;4954868;28;65406;-39
2022/07/09 08:18:53;;;;;;;9.47;4.20;;;;;;;32.68;68.04;100196.91;4961690;28;70026;-36
2022/07/09 08:21:24;;;;;;;5.80;4.65;;;;;;;32.67;68.41;100184.41;4959390;28;66139;-35
2022/07/09 08:23:56;;;;;;;8.63;4.90;;;;;;;32.70;69.04;100186.63;4956145;28;71797;-35
2022/07/09 08:26:28;;;;;;;12.93;4.32;;;;;;;32.76;68.09;100182.91;4955549;28;66327;-35
2022/07/09 08:28:59;;;;;;;;;;;;;;;32.52;69.27;100184.19;4956558;28;69687;-35
2022/07/09 08:31:30;;;;;;;14.05;4.47;;;;;;;32.90;67.30;100184.22;4954940;28;65697;-35
2022/07/09 08:34:01;;;;;;;8.02;3.38;;;;;;;32.98;67.12;100179.41;4959641;28;69902;-36
2022/07/09 08:36:32;;;;;;;11.43;3.10;;;;;;;33.05;66.68;100180.91;4960844;28;67528;-36
2022/07/09 08:39:03;;;;;;;11.13;3.92;;;;;;;33.09;66.56;100181.22;4953638;28;70536;-36
2022/07/09 08:41:34;;;;;;;8.27;3.20;;;;;;;33.13;66.41;100193.22;5001210;28;66540;-35
2022/07/09 08:44:10;;;;;;;7.43;3.37;;;;;;;33.16;66.05;100181.84;4954106;28;70162;-41
2022/07/09 08:46:41;;;;;;;7.20;3.15;;;;;;;33.21;66.02;100184.63;4953718;28;65708;-34
2022/07/09 08:49:14;;;;;;;8.73;3.25;;;;;;;33.21;65.49;100184.63;4957923;28;71479;-35
2022/07/09 08:51:48;;;;;;;7.35;2.90;;;;;;;33.25;65.42;100185.75;4957726;28;65743;-39
2022/07/09 08:54:20;;;;;;;4.18;2.83;;;;;;;33.27;65.36;100186.34;4956745;28;70319;-35
2022/07/09 08:56:51;;;;;;;10.57;2.90;;;;;;;33.27;65.08;100186.34;4954421;28;66322;-35
2022/07/09 08:59:26;;;;;;;3.65;2.80;;;;;;;33.28;65.04;100190.69;5022536;28;71654;-36
2022/07/09 09:01:57;;;;;;;3.97;2.40;;;;;;;33.26;64.80;100187.41;5025559;28;67207;-36
2022/07/09 09:04:28;;;;;;;5.80;2.75;;;;;;;33.21;65.06;100179.22;5022129;28;70113;-35
2022/07/09 09:06:58;;;;;;;7.70;3.28;;;;;;;33.28;64.90;100196.13;5023916;28;65337;-35
2022/07/09 09:09:36;;;;;;;3.08;2.45;;;;;;;32.94;64.21;100131.00;4956483;28;69970;-35
2022/07/09 09:12:14;;;;;;;6.93;2.90;;;;;;;33.31;64.31;100190.19;4953212;28;65944;-35
2022/07/09 09:14:51;;;;;;;6.90;2.90;;;;;;;33.20;63.94;100180.25;4958803;28;69486;-34
2022/07/09 09:17:23;;;;;;;8.60;3.13;;;;;;;33.31;64.21;100200.25;4953333;28;65766;-34
2022/07/09 09:19:57;;;;;;;4.20;3.00;;;;;;;33.30;63.96;100204.84;4953529;28;70259;-34
2022/07/09 09:22:28;;;;;;;8.73;2.65;;;;;;;33.28;64.35;100204.28;4953763;28;65648;-35
2022/07/09 09:25:02;;;;;;;4.33;2.90;;;;;;;33.27;64.15;100199.94;5015956;28;70201;-35
2022/07/09 09:27:33;;;;;;;5.00;2.97;;;;;;;33.31;64.03;100202.97;4950072;28;66011;-34
2022/07/09 09:30:09;;;;;;;4.00;2.50;;;;;;;33.31;63.94;100211.94;5010963;28;71230;-35
2022/07/09 09:32:39;;;;;;;7.25;3.53;;;;;;;33.28;63.94;100206.19;4945377;28;65833;-34
2022/07/09 09:35:11;;;;;;;3.90;2.88;;;;;;;33.30;63.80;100191.28;4952715;28;69968;-35
2022/07/09 09:37:43;;;;;;;4.07;2.70;;;;;;;32.94;63.81;100139.16;4956582;28;66654;-35
2022/07/09 09:40:15;;;;;;;4.05;2.95;;;;;;;33.33;63.68;100192.66;4955186;28;70616;-35
2022/07/09 09:42:48;;;;;;;3.92;2.78;;;;;;;33.30;63.44;100188.56;4958199;28;66288;-35
2022/07/09 09:45:24;;;;;;;2.47;2.28;;;;;;;33.31;63.67;100194.81;4955372;28;69495;-34
2022/07/09 09:48:00;;;;;;;6.50;2.63;;;;;;;32.99;63.61;100167.44;4956445;28;65154;-36
2022/07/09 09:50:32;;;;;;;5.25;3.08;;;;;;;33.30;63.65;100252.97;4958614;28;69624;-36
2022/07/09 09:53:11;;;;;;;6.25;3.00;;;;;;;33.29;63.66;100295.66;5010867;28;65499;-34
2022/07/09 09:55:43;;;;;;;3.83;2.72;;;;;;;33.29;63.45;100303.81;5008131;28;69806;-35
2022/07/09 09:58:14;;;;;;;3.83;2.72;;;;;;;33.27;63.96;100322.25;4954819;28;65762;-35
2022/07/09 10:00:45;;;;;;;3.90;3.33;;;;;;;33.23;63.50;100323.81;4956831;28;70099;-34
2022/07/09 10:03:18;;;;;;;2.70;2.33;;;;;;;32.87;64.35;100282.47;4957396;28;66880;-36
2022/07/09 10:05:51;;;;;;;3.72;2.65;;;;;;;33.19;64.46;100338.97;4957730;28;70124;-35
2022/07/09 10:08:21;;;;;;;5.55;3.08;;;;;;;33.18;64.34;100314.75;5024239;28;65991;-35
2022/07/09 10:10:53;;;;;;;2.90;2.47;;;;;;;33.13;64.54;100345.41;4954931;28;69708;-36
2022/07/09 10:13:23;;;;;;;4.90;2.70;;;;;;;33.02;64.31;100311.00;4953169;28;65099;-35
2022/07/09 10:15:55;;;;;;;7.03;2.88;;;;;;;33.12;64.14;100332.88;4954379;28;69876;-36
2022/07/09 10:18:26;;;;;;;;;;;;;;;32.75;64.97;100327.94;4956362;28;65723;-35
2022/07/09 10:20:58;;;;;;;2.92;2.58;;;;;;;32.59;64.20;100253.53;4952262;28;70105;-36
2022/07/09 10:23:29;;;;;;;4.63;2.88;;;;;;;33.08;64.11;100348.88;4952054;28;66133;-34
2022/07/09 10:26:00;;;;;;;2.88;2.60;;;;;;;33.05;64.29;100337.69;5023025;28;70217;-35
2022/07/09 10:28:41;;;;;;;3.33;2.57;;;;;;;33.00;64.46;100334.88;4956088;28;68043;-35
2022/07/09 10:31:19;;;;;;;3.67;2.65;;;;;;;33.02;64.20;100347.16;4957848;28;70292;-36
2022/07/09 10:34:01;;;;;;;2.33;2.08;;;;;;;32.98;64.14;100343.22;4950261;28;66223;-35
2022/07/09 10:36:34;;;;;;;4.35;2.67;;;;;;;32.97;64.07;100340.78;4950749;28;70193;-35
2022/07/09 10:39:12;;;;;;;3.00;2.33;;;;;;;32.88;64.18;100324.88;5008609;28;65599;-37
2022/07/09 10:41:43;;;;;;;2.78;2.58;;;;;;;32.93;64.38;100352.16;4967819;28;70201;-35
2022/07/09 10:44:27;;;;;;;3.92;2.65;;;;;;;32.61;64.34;100310.31;4977605;28;65357;-39
2022/07/09 10:46:58;;;;;;;3.22;2.42;;;;;;;32.87;64.23;100358.53;4964052;28;70255;-35
2022/07/09 10:49:29;;;;;;;4.03;2.88;;;;;;;32.81;64.47;100354.09;4957855;28;65220;-35
2022/07/09 10:52:01;;;;;;;2.95;2.65;;;;;;;32.84;64.46;100364.47;4952647;28;69613;-36
2022/07/09 10:54:45;;;;;;;3.05;2.75;;;;;;;32.83;64.38;100362.00;5019494;28;65404;-35
2022/07/09 10:57:16;;;;;;;2.93;2.73;;;;;;;32.73;64.68;100357.22;4934021;28;68903;-35
2022/07/09 10:59:47;;;;;;;2.75;2.53;;;;;;;32.70;64.47;100341.41;4956086;28;65729;-34
2022/07/09 11:02:20;;;;;;;2.92;2.22;;;;;;;32.75;64.49;100371.38;4954020;28;70145;-34
2022/07/09 11:04:53;;;;;;;2.20;2.00;;;;;;;32.69;64.61;100366.94;4953167;28;65596;-35
2022/07/09 11:07:25;;;;;;;3.10;2.60;;;;;;;32.73;64.53;100395.25;4953981;28;69297;-36
2022/07/09 11:09:56;;;;;;;;;;;;;;;32.34;65.20;100392.31;5007052;28;66098;-35
2022/07/09 11:12:27;;;;;;;2.90;2.60;;;;;;;32.61;64.85;100389.06;4956619;28;70297;-36
2022/07/09 11:14:58;;;;;;;2.92;2.63;;;;;;;32.62;64.68;100399.66;5002296;28;66219;-34
2022/07/09 11:17:29;;;;;;;5.03;2.83;;;;;;;32.65;64.75;100403.78;5014665;28;70233;-36
2022/07/09 11:20:01;;;;;;;3.10;2.80;;;;;;;32.66;64.57;100402.72;5017570;28;66724;-35
2022/07/09 11:22:32;;;;;;;4.05;2.70;;;;;;;32.67;64.48;100396.22;5020664;28;69596;-36
2022/07/09 11:25:04;;;;;;;3.38;3.08;;;;;;;32.66;64.49;100402.72;4954835;28;66409;-40
2022/07/09 11:27:40;;;;;;;2.55;2.28;;;;;;;32.64;64.46;100396.72;4952252;28;69257;-36
2022/07/09 11:30:15;;;;;;;4.25;3.13;;;;;;;32.68;64.57;100398.72;4952947;28;65975;-35
2022/07/09 11:32:47;;;;;;;2.70;2.50;;;;;;;32.67;64.68;100397.03;4989382;28;69455;-35
2022/07/09 11:35:28;;;;;;;3.30;3.00;;;;;;;32.56;64.60;100380.81;4954539;28;65349;-35
2022/07/09 11:38:01;;;;;;;3.25;2.95;;;;;;;32.64;64.63;100385.84;4954870;28;70380;-35
2022/07/09 11:40:32;;;;;;;3.42;3.13;;;;;;;32.63;64.66;100378.78;4953714;28;66109;-36
2022/07/09 11:43:14;;;;;;;4.43;3.45;;;;;;;32.23;64.83;100315.34;4953035;28;69195;-36